createdAt,value
2017-10-28T00:02:14.451Z,6.27
2017-10-28T00:04:41.981Z,6.20
2017-10-28T00:07:09.481Z,6.13
2017-10-28T00:09:36.964Z,5.90
2017-10-28T00:12:04.461Z,6.90
2017-10-28T00:14:31.958Z,7.43
2017-10-28T00:16:59.465Z,8.30
2017-10-28T00:19:26.967Z,8.40
2017-10-28T00:21:54.478Z,7.90
2017-10-28T00:24:21.959Z,7.17
2017-10-28T00:26:49.458Z,7.30
2017-10-28T00:29:16.953Z,6.50
2017-10-28T00:31:50.120Z,7.10
2017-10-28T00:34:23.172Z,5.60
2017-10-28T00:36:50.676Z,5.60
2017-10-28T00:39:18.161Z,6.80
2017-10-28T00:41:45.655Z,6.50
2017-10-28T00:44:13.156Z,6.27
2017-10-28T00:46:40.656Z,6.50
2017-10-28T00:49:08.146Z,6.37
2017-10-28T00:51:35.638Z,6.67
2017-10-28T00:54:03.133Z,5.70
2017-10-28T00:56:30.631Z,5.47
2017-10-28T00:58:58.119Z,6.03
2017-10-28T01:01:25.618Z,5.40
2017-10-28T01:03:53.111Z,5.77
2017-10-28T01:06:20.616Z,6.77
2017-10-28T01:08:48.117Z,5.60
2017-10-28T01:11:15.621Z,6.30
2017-10-28T01:13:43.140Z,5.20
2017-10-28T01:16:10.630Z,5.13
2017-10-28T01:18:38.125Z,5.43
2017-10-28T01:21:05.629Z,6.23
2017-10-28T01:23:33.111Z,5.10
2017-10-28T01:26:00.603Z,4.93
2017-10-28T01:28:28.108Z,5.90
2017-10-28T01:30:55.611Z,6.20
2017-10-28T01:33:23.110Z,5.70
2017-10-28T01:35:50.599Z,4.80
2017-10-28T01:38:18.112Z,5.37
2017-10-28T01:40:45.631Z,5.23
2017-10-28T01:43:13.118Z,5.27
2017-10-28T01:45:40.610Z,4.70
2017-10-28T01:48:08.118Z,5.13
2017-10-28T01:50:35.615Z,4.80
2017-10-28T01:53:03.109Z,4.90
2017-10-28T01:55:30.612Z,4.30
2017-10-28T01:57:58.102Z,4.83
2017-10-28T02:00:25.603Z,5.63
2017-10-28T02:02:53.097Z,4.10
2017-10-28T02:05:20.596Z,4.97
2017-10-28T02:07:48.082Z,5.20
2017-10-28T02:10:15.660Z,4.97
2017-10-28T02:12:43.145Z,4.40
2017-10-28T02:15:10.646Z,4.93
2017-10-28T02:17:38.150Z,5.20
2017-10-28T02:20:05.651Z,5.30
2017-10-28T02:22:33.146Z,4.37
2017-10-28T02:25:00.642Z,4.33
2017-10-28T02:27:28.134Z,4.73
2017-10-28T02:29:55.629Z,5.00
2017-10-28T02:32:23.143Z,5.30
2017-10-28T02:34:50.638Z,5.23
2017-10-28T02:37:18.148Z,4.70
2017-10-28T02:39:45.664Z,4.70
2017-10-28T02:42:13.186Z,4.60
2017-10-28T02:44:40.682Z,5.20
2017-10-28T02:47:08.182Z,4.10
2017-10-28T02:49:35.674Z,4.60
2017-10-28T02:52:03.160Z,4.40
2017-10-28T02:54:30.654Z,4.60
2017-10-28T02:56:58.153Z,4.90
2017-10-28T02:59:25.659Z,4.20
2017-10-28T03:01:53.170Z,4.77
2017-10-28T03:04:20.669Z,4.20
2017-10-28T03:06:48.165Z,5.43
2017-10-28T03:09:15.650Z,5.57
2017-10-28T03:11:43.140Z,5.00
2017-10-28T03:14:10.709Z,5.77
2017-10-28T03:16:38.218Z,5.13
2017-10-28T03:19:05.708Z,5.80
2017-10-28T03:21:33.209Z,4.90
2017-10-28T03:24:00.717Z,5.10
2017-10-28T03:26:28.206Z,4.90
2017-10-28T03:28:55.703Z,6.20
2017-10-28T03:31:23.213Z,6.73
2017-10-28T03:33:50.714Z,5.90
2017-10-28T03:36:18.217Z,6.03
2017-10-28T03:38:45.725Z,4.50
2017-10-28T03:41:13.230Z,5.37
2017-10-28T03:43:40.843Z,5.50
2017-10-28T03:46:08.335Z,4.90
2017-10-28T03:48:35.842Z,5.17
2017-10-28T03:51:03.335Z,6.67
2017-10-28T03:53:30.831Z,6.20
2017-10-28T03:55:58.338Z,6.50
2017-10-28T03:58:25.830Z,4.97
2017-10-28T04:00:53.329Z,6.63
2017-10-28T04:03:20.831Z,7.20
2017-10-28T04:05:48.331Z,7.20
2017-10-28T04:08:15.829Z,6.83
2017-10-28T04:10:43.321Z,6.23
2017-10-28T04:13:10.818Z,6.70
2017-10-28T04:15:38.313Z,6.40
2017-10-28T04:18:05.809Z,6.10
2017-10-28T04:20:33.315Z,6.23
2017-10-28T04:23:00.801Z,5.30
2017-10-28T04:25:28.310Z,6.70
2017-10-28T04:27:55.815Z,6.00
2017-10-28T04:30:23.327Z,6.93
2017-10-28T04:32:50.838Z,8.13
2017-10-28T04:35:18.323Z,6.27
2017-10-28T04:37:45.822Z,5.23
2017-10-28T04:40:13.312Z,5.77
2017-10-28T04:42:40.808Z,5.53
2017-10-28T04:45:08.302Z,6.23
2017-10-28T04:47:35.797Z,7.30
2017-10-28T04:50:03.314Z,7.00
2017-10-28T04:52:30.831Z,6.10
2017-10-28T04:54:58.330Z,7.63
2017-10-28T04:57:25.836Z,7.10
2017-10-28T04:59:53.323Z,7.20
2017-10-28T05:02:20.822Z,6.30
2017-10-28T05:04:48.327Z,5.73
2017-10-28T05:07:15.812Z,6.57
2017-10-28T05:09:43.326Z,7.00
2017-10-28T05:12:10.823Z,9.20
2017-10-28T05:14:38.325Z,7.17
2017-10-28T05:17:05.835Z,6.27
2017-10-28T05:19:33.447Z,5.50
2017-10-28T05:22:00.963Z,6.80
2017-10-28T05:24:28.448Z,5.80
2017-10-28T05:26:55.945Z,6.23
2017-10-28T05:29:23.438Z,6.60
2017-10-28T05:31:50.954Z,6.57
2017-10-28T05:34:18.489Z,6.00
2017-10-28T05:36:45.990Z,6.53
2017-10-28T05:39:13.511Z,6.97
2017-10-28T05:41:41.066Z,7.40
2017-10-28T05:44:08.566Z,7.10
2017-10-28T05:46:36.067Z,8.03
2017-10-28T05:49:03.603Z,10.37
2017-10-28T05:51:31.118Z,13.80
2017-10-28T05:53:58.626Z,8.73
2017-10-28T05:56:26.223Z,9.10
2017-10-28T05:58:53.718Z,7.30
2017-10-28T06:01:21.211Z,7.10
2017-10-28T06:03:48.695Z,6.70
2017-10-28T06:06:16.199Z,7.67
2017-10-28T06:08:43.693Z,8.53
2017-10-28T06:11:11.266Z,31.40
2017-10-28T06:13:38.815Z,9.73
2017-10-28T06:16:06.305Z,6.47
2017-10-28T06:18:33.814Z,6.20
2017-10-28T06:21:01.310Z,6.40
2017-10-28T06:23:28.805Z,6.80
2017-10-28T06:25:56.317Z,6.77
2017-10-28T06:28:23.805Z,7.10
2017-10-28T06:30:51.301Z,9.33
2017-10-28T06:33:18.810Z,8.70
2017-10-28T06:35:46.306Z,7.17
2017-10-28T06:38:13.809Z,6.80
2017-10-28T06:40:41.352Z,6.20
2017-10-28T06:43:08.839Z,7.17
2017-10-28T06:45:36.374Z,14.20
2017-10-28T06:48:03.890Z,17.13
2017-10-28T06:50:31.395Z,8.40
2017-10-28T06:52:58.903Z,6.90
2017-10-28T06:55:26.402Z,7.37
2017-10-28T06:57:53.881Z,5.97
2017-10-28T07:00:21.373Z,7.30
2017-10-28T07:02:48.884Z,6.83
2017-10-28T07:05:16.375Z,6.40
2017-10-28T07:07:43.861Z,6.53
2017-10-28T07:10:11.363Z,6.67
2017-10-28T07:12:38.854Z,6.33
2017-10-28T07:15:06.363Z,7.07
2017-10-28T07:17:33.875Z,7.43
2017-10-28T07:20:01.374Z,7.43
2017-10-28T07:22:28.865Z,6.87
2017-10-28T07:24:56.375Z,7.07
2017-10-28T07:27:23.868Z,7.47
2017-10-28T07:29:51.359Z,8.03
2017-10-28T07:32:18.855Z,7.93
2017-10-28T07:34:46.378Z,7.30
2017-10-28T07:37:13.883Z,5.93
2017-10-28T07:39:41.387Z,7.40
2017-10-28T07:42:08.909Z,7.50
2017-10-28T07:44:36.413Z,6.90
2017-10-28T07:47:03.899Z,7.13
2017-10-28T07:49:31.395Z,7.50
2017-10-28T07:51:58.907Z,7.60
2017-10-28T07:54:26.475Z,7.23
2017-10-28T07:56:53.979Z,7.57
2017-10-28T07:59:21.592Z,7.00
2017-10-28T08:01:49.102Z,7.07
2017-10-28T08:04:21.608Z,7.40
2017-10-28T08:06:49.122Z,8.17
2017-10-28T08:09:16.640Z,7.20
2017-10-28T08:11:44.145Z,7.40
2017-10-28T08:14:11.641Z,7.27
2017-10-28T08:16:39.145Z,7.13
2017-10-28T08:19:06.634Z,8.10
2017-10-28T08:21:34.163Z,8.30
2017-10-28T08:24:01.668Z,7.80
2017-10-28T08:26:29.187Z,7.23
2017-10-28T08:28:56.719Z,7.60
2017-10-28T08:31:24.238Z,6.40
2017-10-28T08:33:51.756Z,7.70
2017-10-28T08:36:19.281Z,7.90
2017-10-28T08:38:46.802Z,7.27
2017-10-28T08:41:14.308Z,7.20
2017-10-28T08:43:41.811Z,7.57
2017-10-28T08:46:09.321Z,8.00
2017-10-28T08:48:36.806Z,8.47
2017-10-28T08:51:04.340Z,9.00
2017-10-28T08:53:31.851Z,8.53
2017-10-28T08:55:59.369Z,7.60
2017-10-28T08:58:26.882Z,7.70
2017-10-28T09:00:54.417Z,8.20
2017-10-28T09:03:21.930Z,7.70
2017-10-28T09:05:49.427Z,8.10
2017-10-28T09:08:16.949Z,8.20
2017-10-28T09:10:44.466Z,8.93
2017-10-28T09:13:11.977Z,7.87
2017-10-28T09:15:39.603Z,9.03
2017-10-28T09:18:07.125Z,9.40
2017-10-28T09:20:34.638Z,8.63
2017-10-28T09:23:02.131Z,9.30
2017-10-28T09:25:29.658Z,8.20
2017-10-28T09:27:57.165Z,8.93
2017-10-28T09:30:24.667Z,8.17
2017-10-28T09:32:52.177Z,8.20
2017-10-28T09:35:19.683Z,8.60
2017-10-28T09:37:47.233Z,9.07
2017-10-28T09:40:14.727Z,7.97
2017-10-28T09:42:42.235Z,7.90
2017-10-28T09:45:09.755Z,7.53
2017-10-28T09:47:37.258Z,7.10
2017-10-28T09:50:04.777Z,7.30
2017-10-28T09:52:32.287Z,7.60
2017-10-28T09:54:59.802Z,6.50
2017-10-28T09:57:27.345Z,7.73
2017-10-28T09:59:54.842Z,7.90
2017-10-28T10:02:22.367Z,6.50
2017-10-28T10:04:49.866Z,7.70
2017-10-28T10:07:17.354Z,6.40
2017-10-28T10:09:44.853Z,7.03
2017-10-28T10:12:12.350Z,5.57
2017-10-28T10:14:39.874Z,6.10
2017-10-28T10:17:07.415Z,5.13
2017-10-28T10:19:35.511Z,5.60
2017-10-28T10:22:03.004Z,5.87
2017-10-28T10:24:30.526Z,6.90
2017-10-28T10:26:58.036Z,5.40
2017-10-28T10:29:25.537Z,6.33
2017-10-28T10:31:53.050Z,5.73
2017-10-28T10:34:20.558Z,5.90
2017-10-28T10:36:48.061Z,5.40
2017-10-28T10:39:15.564Z,4.27
2017-10-28T10:41:43.116Z,5.50
2017-10-28T10:44:10.626Z,5.20
2017-10-28T10:46:38.143Z,4.67
2017-10-28T10:49:05.646Z,3.97
2017-10-28T10:51:33.148Z,3.80
2017-10-28T10:54:00.652Z,3.20
2017-10-28T10:56:28.165Z,3.40
2017-10-28T10:58:55.681Z,3.03
2017-10-28T11:01:23.183Z,2.00
2017-10-28T11:03:50.710Z,1.90
2017-10-28T11:06:18.198Z,2.93
2017-10-28T11:08:45.690Z,1.80
2017-10-28T11:11:13.185Z,2.17
2017-10-28T11:13:40.704Z,1.23
2017-10-28T11:16:08.216Z,1.37
2017-10-28T11:18:35.717Z,1.67
2017-10-28T11:21:03.213Z,1.40
2017-10-28T11:23:31.106Z,1.10
2017-10-28T11:25:58.625Z,0.90
2017-10-28T11:28:26.113Z,1.03
2017-10-28T11:30:53.642Z,0.63
2017-10-28T11:33:21.129Z,1.20
2017-10-28T11:35:48.642Z,0.97
2017-10-28T11:38:17.125Z,1.17
2017-10-28T11:40:44.643Z,0.90
2017-10-28T11:43:12.211Z,0.60
2017-10-28T11:45:39.813Z,0.70
2017-10-28T11:48:07.294Z,1.00
2017-10-28T11:50:34.809Z,1.13
2017-10-28T11:53:02.330Z,1.20
2017-10-28T11:55:29.830Z,0.93
2017-10-28T11:57:57.329Z,1.00
2017-10-28T12:00:24.838Z,0.93
2017-10-28T12:02:52.337Z,1.00
2017-10-28T12:05:19.837Z,0.90
2017-10-28T12:07:47.333Z,1.20
2017-10-28T12:10:14.867Z,0.90
2017-10-28T12:12:42.356Z,1.00
2017-10-28T12:15:09.866Z,1.10
2017-10-28T12:17:37.369Z,0.90
2017-10-28T12:20:04.877Z,0.83
2017-10-28T12:22:32.380Z,1.10
2017-10-28T12:24:59.875Z,1.70
2017-10-28T12:27:27.378Z,1.10
2017-10-28T12:29:54.871Z,1.50
2017-10-28T12:32:22.383Z,0.90
2017-10-28T12:34:49.949Z,1.73
2017-10-28T12:37:17.468Z,0.87
2017-10-28T12:39:45.009Z,1.80
2017-10-28T12:42:12.601Z,1.03
2017-10-28T12:44:40.110Z,1.30
2017-10-28T12:47:07.603Z,2.00
2017-10-28T12:49:35.136Z,1.70
2017-10-28T12:52:02.651Z,2.70
2017-10-28T12:54:30.154Z,1.73
2017-10-28T12:56:57.745Z,1.23
2017-10-28T12:59:25.262Z,2.13
2017-10-28T13:01:52.766Z,1.40
2017-10-28T13:04:20.301Z,1.37
2017-10-28T13:06:47.807Z,1.60
2017-10-28T13:09:15.320Z,1.93
2017-10-28T13:11:42.834Z,1.23
2017-10-28T13:14:10.348Z,1.43
2017-10-28T13:16:37.860Z,1.07
2017-10-28T13:19:05.371Z,1.20
2017-10-28T13:21:32.896Z,2.17
2017-10-28T13:24:00.401Z,1.93
2017-10-28T13:26:27.936Z,2.23
2017-10-28T13:28:55.443Z,1.57
2017-10-28T13:31:22.936Z,1.57
2017-10-28T13:33:50.453Z,1.30
2017-10-28T13:36:17.973Z,1.70
2017-10-28T13:38:45.474Z,1.37
2017-10-28T13:41:12.974Z,1.93
2017-10-28T13:43:40.493Z,1.33
2017-10-28T13:46:08.030Z,2.20
2017-10-28T13:48:35.525Z,1.70
2017-10-28T13:51:03.028Z,1.97
2017-10-28T13:53:30.526Z,1.43
2017-10-28T13:55:58.039Z,1.67
2017-10-28T13:58:25.561Z,1.83
2017-10-28T14:00:53.074Z,1.93
2017-10-28T14:03:20.578Z,1.90
2017-10-28T14:05:48.104Z,1.20
2017-10-28T14:08:15.634Z,1.30
2017-10-28T14:10:43.167Z,1.63
2017-10-28T14:13:10.675Z,1.77
2017-10-28T14:15:38.175Z,1.77
2017-10-28T14:18:05.678Z,1.60
2017-10-28T14:20:33.177Z,2.50
2017-10-28T14:23:00.675Z,1.37
2017-10-28T14:25:28.174Z,1.03
2017-10-28T14:27:55.699Z,1.60
2017-10-28T14:30:23.235Z,1.87
2017-10-28T14:32:50.898Z,1.97
2017-10-28T14:35:18.421Z,1.40
2017-10-28T14:37:45.924Z,1.53
2017-10-28T14:40:13.454Z,1.27
2017-10-28T14:42:40.963Z,1.87
2017-10-28T14:45:08.477Z,1.13
2017-10-28T14:47:35.991Z,1.80
2017-10-28T14:50:03.609Z,1.20
2017-10-28T14:52:31.167Z,1.53
2017-10-28T14:54:58.731Z,1.50
2017-10-28T14:57:26.262Z,2.07
2017-10-28T14:59:53.761Z,1.40
2017-10-28T15:02:21.253Z,1.70
2017-10-28T15:04:48.760Z,1.70
2017-10-28T15:07:16.289Z,1.90
2017-10-28T15:09:43.800Z,1.87
2017-10-28T15:12:11.307Z,1.90
2017-10-28T15:14:38.803Z,1.90
2017-10-28T15:17:06.344Z,1.43
2017-10-28T15:19:33.850Z,1.67
2017-10-28T15:22:01.354Z,1.47
2017-10-28T15:24:28.862Z,1.90
2017-10-28T15:26:56.385Z,1.63
2017-10-28T15:29:23.886Z,2.23
2017-10-28T15:31:51.418Z,1.87
2017-10-28T15:34:18.917Z,1.90
2017-10-28T15:36:46.430Z,2.20
2017-10-28T15:39:13.941Z,2.30
2017-10-28T15:41:41.447Z,2.43
2017-10-28T15:44:08.963Z,1.70
2017-10-28T15:46:36.479Z,1.93
2017-10-28T15:49:04.007Z,2.50
2017-10-28T15:51:31.527Z,2.40
2017-10-28T15:53:58.316Z,2.17
2017-10-28T15:56:25.821Z,2.50
2017-10-28T15:58:53.331Z,2.23
2017-10-28T16:01:20.823Z,2.50
2017-10-28T16:03:48.333Z,2.27
2017-10-28T16:06:15.819Z,2.20
2017-10-28T16:08:43.320Z,2.10
2017-10-28T16:11:10.813Z,1.80
2017-10-28T16:13:38.365Z,2.10
2017-10-28T16:16:05.871Z,2.17
2017-10-28T16:18:33.366Z,2.07
2017-10-28T16:21:00.868Z,2.07
2017-10-28T16:23:28.388Z,2.33
2017-10-28T16:25:55.881Z,2.30
2017-10-28T16:28:23.388Z,2.20
2017-10-28T16:30:50.920Z,2.00
2017-10-28T16:33:18.407Z,2.30
2017-10-28T16:35:45.905Z,2.83
2017-10-28T16:38:13.431Z,2.00
2017-10-28T16:40:40.965Z,2.53
2017-10-28T16:43:08.492Z,2.00
2017-10-28T16:45:35.990Z,2.20
2017-10-28T16:48:03.486Z,2.83
2017-10-28T16:50:30.980Z,2.10
2017-10-28T16:52:58.477Z,2.80
2017-10-28T16:55:25.990Z,2.43
2017-10-28T16:57:53.509Z,2.03
2017-10-28T17:00:20.993Z,2.00
2017-10-28T17:02:48.621Z,1.93
2017-10-28T17:05:16.154Z,2.67
2017-10-28T17:07:43.689Z,2.83
2017-10-28T17:10:11.279Z,1.67
2017-10-28T17:12:38.860Z,2.37
2017-10-28T17:15:06.366Z,2.13
2017-10-28T17:17:33.885Z,2.53
2017-10-28T17:20:01.423Z,2.30
2017-10-28T17:22:28.943Z,2.90
2017-10-28T17:24:56.439Z,2.23
2017-10-28T17:27:23.931Z,2.47
2017-10-28T17:29:51.424Z,2.20
2017-10-28T17:32:18.927Z,2.23
2017-10-28T17:34:46.469Z,2.23
2017-10-28T17:37:13.986Z,1.93
2017-10-28T17:39:41.475Z,2.33
2017-10-28T17:42:09.024Z,2.70
2017-10-28T17:44:36.528Z,3.57
2017-10-28T17:47:04.077Z,2.20
2017-10-28T17:49:31.587Z,2.43
2017-10-28T17:51:59.092Z,2.30
2017-10-28T17:54:26.591Z,2.57
2017-10-28T17:56:54.957Z,2.40
2017-10-28T17:59:22.482Z,2.47
2017-10-28T18:01:50.023Z,2.53
2017-10-28T18:04:17.509Z,2.43
2017-10-28T18:06:45.019Z,2.30
2017-10-28T18:09:12.516Z,2.20
2017-10-28T18:11:40.026Z,2.40
2017-10-28T18:14:07.560Z,2.33
2017-10-28T18:16:35.092Z,2.00
2017-10-28T18:19:02.613Z,2.50
2017-10-28T18:21:30.113Z,2.03
2017-10-28T18:23:57.614Z,2.00
2017-10-28T18:26:25.125Z,3.07
2017-10-28T18:28:52.635Z,2.10
2017-10-28T18:31:20.173Z,3.83
2017-10-28T18:33:47.681Z,2.47
2017-10-28T18:36:15.209Z,2.27
2017-10-28T18:38:42.732Z,2.13
2017-10-28T18:41:10.229Z,2.47
2017-10-28T18:43:38.099Z,2.30
2017-10-28T18:46:05.641Z,2.53
2017-10-28T18:48:33.153Z,2.07
2017-10-28T18:51:00.639Z,2.10
2017-10-28T18:53:28.135Z,2.40
2017-10-28T18:55:55.663Z,2.00
2017-10-28T18:58:23.234Z,2.60
2017-10-28T19:00:50.743Z,2.73
2017-10-28T19:03:18.289Z,2.40
2017-10-28T19:05:45.786Z,2.07
2017-10-28T19:08:13.278Z,2.63
2017-10-28T19:10:40.802Z,2.10
2017-10-28T19:13:08.361Z,2.67
2017-10-28T19:15:35.881Z,2.63
2017-10-28T19:18:03.427Z,2.23
2017-10-28T19:20:30.920Z,2.47
2017-10-28T19:22:58.425Z,2.13
2017-10-28T19:25:25.940Z,2.80
2017-10-28T19:27:53.445Z,2.27
2017-10-28T19:30:20.970Z,2.10
2017-10-28T19:32:48.480Z,2.23
2017-10-28T19:35:16.032Z,2.13
2017-10-28T19:37:43.544Z,1.83
2017-10-28T19:40:11.049Z,2.43
2017-10-28T19:42:38.613Z,1.87
2017-10-28T19:45:06.210Z,2.73
2017-10-28T19:47:33.723Z,2.40
2017-10-28T19:50:01.294Z,2.00
2017-10-28T19:52:28.819Z,2.43
2017-10-28T19:54:56.367Z,2.33
2017-10-28T19:57:23.912Z,2.37
2017-10-28T19:59:51.433Z,2.50
2017-10-28T20:02:19.045Z,2.10
2017-10-28T20:04:46.606Z,1.90
2017-10-28T20:07:14.127Z,2.17
2017-10-28T20:09:41.669Z,1.87
2017-10-28T20:12:09.181Z,2.30
2017-10-28T20:14:36.772Z,1.70
2017-10-28T20:17:04.311Z,2.13
2017-10-28T20:19:31.860Z,2.00
2017-10-28T20:21:59.392Z,1.70
2017-10-28T20:24:26.933Z,1.50
2017-10-28T20:26:54.473Z,1.70
2017-10-28T20:29:22.020Z,2.97
2017-10-28T20:31:49.581Z,1.50
2017-10-28T20:34:17.152Z,1.73
2017-10-28T20:36:44.722Z,1.50
2017-10-28T20:39:12.281Z,1.50
2017-10-28T20:41:39.819Z,1.60
2017-10-28T20:44:07.348Z,1.70
2017-10-28T20:46:34.890Z,1.70
2017-10-28T20:49:02.431Z,1.90
2017-10-28T20:51:30.011Z,1.93
2017-10-28T20:53:57.559Z,1.80
2017-10-28T20:56:25.166Z,1.60
2017-10-28T20:58:52.691Z,2.50
2017-10-28T21:01:20.213Z,2.10
2017-10-28T21:03:47.733Z,2.23
2017-10-28T21:06:15.288Z,2.17
2017-10-28T21:08:42.802Z,2.27
2017-10-28T21:11:10.334Z,1.70
2017-10-28T21:13:37.852Z,2.33
2017-10-28T21:16:05.363Z,2.40
2017-10-28T21:18:32.899Z,2.20
2017-10-28T21:21:00.461Z,2.13
2017-10-28T21:23:27.986Z,2.47
2017-10-28T21:25:55.534Z,1.47
2017-10-28T21:28:23.068Z,2.10
2017-10-28T21:30:50.619Z,1.60
2017-10-28T21:33:18.213Z,2.63
2017-10-28T21:35:45.708Z,2.00
2017-10-28T21:38:13.252Z,2.17
2017-10-28T21:40:40.765Z,2.20
2017-10-28T21:43:08.306Z,1.70
2017-10-28T21:45:35.844Z,2.60
2017-10-28T21:48:03.366Z,2.30
2017-10-28T21:50:30.901Z,2.10
2017-10-28T21:52:58.432Z,1.60
2017-10-28T21:55:25.979Z,2.10
2017-10-28T21:57:53.480Z,1.93
2017-10-28T22:00:20.989Z,2.20
2017-10-28T22:02:48.478Z,2.33
2017-10-28T22:05:15.973Z,2.60
2017-10-28T22:07:43.487Z,1.83
2017-10-28T22:10:11.004Z,1.80
2017-10-28T22:12:38.502Z,2.10
2017-10-28T22:15:06.122Z,2.30
2017-10-28T22:17:33.652Z,1.80
2017-10-28T22:20:01.146Z,2.10
2017-10-28T22:22:28.661Z,2.23
2017-10-28T22:24:56.161Z,1.97
2017-10-28T22:27:23.655Z,2.00
2017-10-28T22:29:51.153Z,2.07
2017-10-28T22:32:18.672Z,1.87
2017-10-28T22:34:46.181Z,1.93
2017-10-28T22:37:13.657Z,2.47
2017-10-28T22:39:41.161Z,2.20
2017-10-28T22:42:08.682Z,2.20
2017-10-28T22:44:36.169Z,2.10
2017-10-28T22:47:03.667Z,1.70
2017-10-28T22:49:31.207Z,2.00
2017-10-28T22:51:58.720Z,2.00
2017-10-28T22:54:26.225Z,2.30
2017-10-28T22:56:53.734Z,2.07
2017-10-28T22:59:21.226Z,3.03
2017-10-28T23:01:48.738Z,2.50
2017-10-28T23:04:16.245Z,2.53
2017-10-28T23:06:43.729Z,2.10
2017-10-28T23:09:11.243Z,2.23
2017-10-28T23:11:38.772Z,2.10
2017-10-28T23:14:06.277Z,2.10
2017-10-28T23:16:33.791Z,2.03
2017-10-28T23:19:01.291Z,2.10
2017-10-28T23:21:28.810Z,2.20
2017-10-28T23:23:56.305Z,1.80
2017-10-28T23:26:23.801Z,2.20
2017-10-28T23:28:51.289Z,2.50
2017-10-28T23:31:18.773Z,2.00
2017-10-28T23:33:46.253Z,2.17
2017-10-28T23:36:13.741Z,1.80
2017-10-28T23:38:41.232Z,2.00
2017-10-28T23:41:08.721Z,2.10
2017-10-28T23:43:36.216Z,2.13
2017-10-28T23:46:03.706Z,1.93
2017-10-28T23:48:31.235Z,2.00
2017-10-28T23:50:58.744Z,1.70
2017-10-28T23:53:26.229Z,2.27
2017-10-28T23:55:53.708Z,2.10
2017-10-28T23:58:21.190Z,1.90
